sensor_id;sensor_type;location;lat;lon;timestamp;P1;durP1;ratioP1;P2;durP2;ratioP2
13408;SDS011;6775;49.574;11.170;2023-11-21T00:00:38;2.27;;;0.90;;
13408;SDS011;6775;49.574;11.170;2023-11-21T00:03:06;1.03;;;0.93;;
13408;SDS011;6775;49.574;11.170;2023-11-21T00:05:34;2.00;;;1.10;;
13408;SDS011;6775;49.574;11.170;2023-11-21T00:08:04;0.77;;;0.67;;
13408;SDS011;6775;49.574;11.170;2023-11-21T00:10:32;1.23;;;0.77;;
13408;SDS011;6775;49.574;11.170;2023-11-21T00:13:04;1.50;;;1.20;;
13408;SDS011;6775;49.574;11.170;2023-11-21T00:15:32;2.27;;;0.97;;
13408;SDS011;6775;49.574;11.170;2023-11-21T00:18:00;1.00;;;0.90;;
13408;SDS011;6775;49.574;11.170;2023-11-21T00:20:28;2.13;;;0.80;;
13408;SDS011;6775;49.574;11.170;2023-11-21T00:22:56;1.60;;;0.90;;
13408;SDS011;6775;49.574;11.170;2023-11-21T00:25:27;1.13;;;0.60;;
13408;SDS011;6775;49.574;11.170;2023-11-21T00:27:55;1.97;;;0.60;;
13408;SDS011;6775;49.574;11.170;2023-11-21T00:30:23;0.90;;;0.80;;
13408;SDS011;6775;49.574;11.170;2023-11-21T00:32:51;3.03;;;0.93;;
13408;SDS011;6775;49.574;11.170;2023-11-21T00:35:19;0.80;;;0.80;;
13408;SDS011;6775;49.574;11.170;2023-11-21T00:37:47;0.67;;;0.60;;
13408;SDS011;6775;49.574;11.170;2023-11-21T00:40:16;0.70;;;0.63;;
13408;SDS011;6775;49.574;11.170;2023-11-21T00:42:48;1.90;;;0.70;;
13408;SDS011;6775;49.574;11.170;2023-11-21T00:45:16;0.80;;;0.80;;
13408;SDS011;6775;49.574;11.170;2023-11-21T00:47:44;2.10;;;0.50;;
13408;SDS011;6775;49.574;11.170;2023-11-21T00:50:12;1.13;;;0.60;;
13408;SDS011;6775;49.574;11.170;2023-11-21T00:52:41;3.43;;;0.80;;
13408;SDS011;6775;49.574;11.170;2023-11-21T00:55:09;0.97;;;0.63;;
13408;SDS011;6775;49.574;11.170;2023-11-21T00:57:38;1.53;;;0.73;;
13408;SDS011;6775;49.574;11.170;2023-11-21T01:00:08;3.40;;;0.80;;
13408;SDS011;6775;49.574;11.170;2023-11-21T01:02:40;0.60;;;0.43;;
13408;SDS011;6775;49.574;11.170;2023-11-21T01:05:07;1.67;;;0.63;;
13408;SDS011;6775;49.574;11.170;2023-11-21T01:07:36;0.80;;;0.50;;
13408;SDS011;6775;49.574;11.170;2023-11-21T01:10:04;0.73;;;0.53;;
13408;SDS011;6775;49.574;11.170;2023-11-21T01:12:34;1.87;;;0.50;;
13408;SDS011;6775;49.574;11.170;2023-11-21T01:15:03;1.03;;;0.60;;
13408;SDS011;6775;49.574;11.170;2023-11-21T01:17:35;1.53;;;0.60;;
13408;SDS011;6775;49.574;11.170;2023-11-21T01:20:04;0.63;;;0.60;;
13408;SDS011;6775;49.574;11.170;2023-11-21T01:22:38;1.13;;;0.60;;
13408;SDS011;6775;49.574;11.170;2023-11-21T01:25:07;2.53;;;0.80;;
13408;SDS011;6775;49.574;11.170;2023-11-21T01:27:36;1.10;;;0.60;;
13408;SDS011;6775;49.574;11.170;2023-11-21T01:30:05;1.03;;;0.50;;
13408;SDS011;6775;49.574;11.170;2023-11-21T01:32:37;2.57;;;1.30;;
13408;SDS011;6775;49.574;11.170;2023-11-21T01:35:07;1.80;;;1.30;;
13408;SDS011;6775;49.574;11.170;2023-11-21T01:37:36;1.30;;;1.20;;
13408;SDS011;6775;49.574;11.170;2023-11-21T01:40:05;2.37;;;1.10;;
13408;SDS011;6775;49.574;11.170;2023-11-21T01:42:36;1.50;;;1.40;;
13408;SDS011;6775;49.574;11.170;2023-11-21T01:45:04;2.20;;;1.30;;
13408;SDS011;6775;49.574;11.170;2023-11-21T01:47:34;2.67;;;1.50;;
13408;SDS011;6775;49.574;11.170;2023-11-21T01:50:05;2.03;;;1.23;;
13408;SDS011;6775;49.574;11.170;2023-11-21T01:52:38;1.30;;;1.03;;
13408;SDS011;6775;49.574;11.170;2023-11-21T01:55:07;1.67;;;1.57;;
13408;SDS011;6775;49.574;11.170;2023-11-21T01:57:36;1.70;;;1.10;;
13408;SDS011;6775;49.574;11.170;2023-11-21T02:00:05;3.47;;;1.13;;
13408;SDS011;6775;49.574;11.170;2023-11-21T02:02:42;1.40;;;1.30;;
13408;SDS011;6775;49.574;11.170;2023-11-21T02:05:11;2.43;;;1.30;;
13408;SDS011;6775;49.574;11.170;2023-11-21T02:07:41;1.93;;;1.30;;
13408;SDS011;6775;49.574;11.170;2023-11-21T02:10:09;2.07;;;1.27;;
13408;SDS011;6775;49.574;11.170;2023-11-21T02:12:40;1.27;;;1.13;;
13408;SDS011;6775;49.574;11.170;2023-11-21T02:15:10;1.63;;;1.27;;
13408;SDS011;6775;49.574;11.170;2023-11-21T02:17:43;2.57;;;1.20;;
13408;SDS011;6775;49.574;11.170;2023-11-21T02:20:13;1.53;;;1.07;;
13408;SDS011;6775;49.574;11.170;2023-11-21T02:22:41;1.50;;;1.17;;
13408;SDS011;6775;49.574;11.170;2023-11-21T02:25:12;1.73;;;1.20;;
13408;SDS011;6775;49.574;11.170;2023-11-21T02:27:40;2.10;;;1.17;;
13408;SDS011;6775;49.574;11.170;2023-11-21T02:30:09;1.10;;;1.00;;
13408;SDS011;6775;49.574;11.170;2023-11-21T02:32:40;1.70;;;1.23;;
13408;SDS011;6775;49.574;11.170;2023-11-21T02:35:14;3.23;;;1.50;;
13408;SDS011;6775;49.574;11.170;2023-11-21T02:37:43;1.63;;;1.17;;
13408;SDS011;6775;49.574;11.170;2023-11-21T02:40:13;1.57;;;1.20;;
13408;SDS011;6775;49.574;11.170;2023-11-21T02:42:44;2.00;;;1.30;;
13408;SDS011;6775;49.574;11.170;2023-11-21T02:45:13;2.27;;;1.30;;
13408;SDS011;6775;49.574;11.170;2023-11-21T02:47:43;1.70;;;1.10;;
13408;SDS011;6775;49.574;11.170;2023-11-21T02:50:11;1.30;;;1.20;;
13408;SDS011;6775;49.574;11.170;2023-11-21T02:52:39;1.23;;;1.13;;
13408;SDS011;6775;49.574;11.170;2023-11-21T02:55:08;2.20;;;1.27;;
13408;SDS011;6775;49.574;11.170;2023-11-21T02:57:38;1.30;;;1.20;;
13408;SDS011;6775;49.574;11.170;2023-11-21T03:00:06;1.60;;;1.27;;
13408;SDS011;6775;49.574;11.170;2023-11-21T03:02:39;2.33;;;1.30;;
13408;SDS011;6775;49.574;11.170;2023-11-21T03:05:07;3.07;;;1.70;;
13408;SDS011;6775;49.574;11.170;2023-11-21T03:07:36;2.60;;;1.40;;
13408;SDS011;6775;49.574;11.170;2023-11-21T03:10:05;3.13;;;1.50;;
13408;SDS011;6775;49.574;11.170;2023-11-21T03:12:39;3.60;;;1.40;;
13408;SDS011;6775;49.574;11.170;2023-11-21T03:15:07;1.77;;;1.27;;
13408;SDS011;6775;49.574;11.170;2023-11-21T03:17:36;2.00;;;1.20;;
13408;SDS011;6775;49.574;11.170;2023-11-21T03:20:05;1.53;;;1.03;;
13408;SDS011;6775;49.574;11.170;2023-11-21T03:22:37;2.33;;;1.40;;
13408;SDS011;6775;49.574;11.170;2023-11-21T03:25:05;1.63;;;1.40;;
13408;SDS011;6775;49.574;11.170;2023-11-21T03:27:39;2.20;;;1.27;;
13408;SDS011;6775;49.574;11.170;2023-11-21T03:30:08;1.90;;;1.50;;
13408;SDS011;6775;49.574;11.170;2023-11-21T03:32:38;2.73;;;1.40;;
13408;SDS011;6775;49.574;11.170;2023-11-21T03:35:06;2.00;;;1.30;;
13408;SDS011;6775;49.574;11.170;2023-11-21T03:37:35;3.10;;;1.30;;
13408;SDS011;6775;49.574;11.170;2023-11-21T03:40:05;1.30;;;1.17;;
13408;SDS011;6775;49.574;11.170;2023-11-21T03:42:35;1.50;;;1.20;;
13408;SDS011;6775;49.574;11.170;2023-11-21T03:45:05;1.23;;;1.13;;
13408;SDS011;6775;49.574;11.170;2023-11-21T03:47:34;2.60;;;1.23;;
13408;SDS011;6775;49.574;11.170;2023-11-21T03:50:03;2.33;;;1.27;;
13408;SDS011;6775;49.574;11.170;2023-11-21T03:52:32;0.73;;;0.73;;
13408;SDS011;6775;49.574;11.170;2023-11-21T03:55:01;1.83;;;1.47;;
13408;SDS011;6775;49.574;11.170;2023-11-21T03:57:29;1.50;;;1.23;;
13408;SDS011;6775;49.574;11.170;2023-11-21T03:59:57;1.73;;;1.17;;
13408;SDS011;6775;49.574;11.170;2023-11-21T04:02:27;1.37;;;1.20;;
13408;SDS011;6775;49.574;11.170;2023-11-21T04:04:55;1.27;;;1.17;;
13408;SDS011;6775;49.574;11.170;2023-11-21T04:07:24;0.87;;;0.87;;
13408;SDS011;6775;49.574;11.170;2023-11-21T04:09:52;1.43;;;1.30;;
13408;SDS011;6775;49.574;11.170;2023-11-21T04:12:21;4.20;;;1.87;;
13408;SDS011;6775;49.574;11.170;2023-11-21T04:14:49;3.13;;;1.50;;
13408;SDS011;6775;49.574;11.170;2023-11-21T04:17:20;1.70;;;1.37;;
13408;SDS011;6775;49.574;11.170;2023-11-21T04:19:49;1.27;;;1.13;;
13408;SDS011;6775;49.574;11.170;2023-11-21T04:22:17;1.50;;;1.37;;
13408;SDS011;6775;49.574;11.170;2023-11-21T04:24:45;1.83;;;1.10;;
13408;SDS011;6775;49.574;11.170;2023-11-21T04:27:13;1.37;;;1.20;;
13408;SDS011;6775;49.574;11.170;2023-11-21T04:29:44;2.20;;;1.57;;
13408;SDS011;6775;49.574;11.170;2023-11-21T04:32:12;1.40;;;1.30;;
13408;SDS011;6775;49.574;11.170;2023-11-21T04:34:40;3.00;;;1.40;;
13408;SDS011;6775;49.574;11.170;2023-11-21T04:37:09;1.63;;;1.40;;
13408;SDS011;6775;49.574;11.170;2023-11-21T04:39:38;3.30;;;1.63;;
13408;SDS011;6775;49.574;11.170;2023-11-21T04:42:06;3.27;;;1.70;;
13408;SDS011;6775;49.574;11.170;2023-11-21T04:44:34;2.17;;;1.47;;
13408;SDS011;6775;49.574;11.170;2023-11-21T04:47:02;1.83;;;1.30;;
13408;SDS011;6775;49.574;11.170;2023-11-21T04:49:30;2.17;;;1.30;;
13408;SDS011;6775;49.574;11.170;2023-11-21T04:51:59;1.83;;;1.20;;
13408;SDS011;6775;49.574;11.170;2023-11-21T04:54:28;2.57;;;1.57;;
13408;SDS011;6775;49.574;11.170;2023-11-21T04:56:58;3.07;;;1.70;;
13408;SDS011;6775;49.574;11.170;2023-11-21T04:59:26;5.60;;;2.60;;
13408;SDS011;6775;49.574;11.170;2023-11-21T05:01:54;4.03;;;2.43;;
13408;SDS011;6775;49.574;11.170;2023-11-21T05:04:23;3.13;;;2.57;;
13408;SDS011;6775;49.574;11.170;2023-11-21T05:06:51;2.50;;;2.23;;
13408;SDS011;6775;49.574;11.170;2023-11-21T05:09:19;2.33;;;2.13;;
13408;SDS011;6775;49.574;11.170;2023-11-21T05:11:49;3.43;;;2.50;;
13408;SDS011;6775;49.574;11.170;2023-11-21T05:14:19;4.10;;;2.60;;
13408;SDS011;6775;49.574;11.170;2023-11-21T05:16:47;2.93;;;2.30;;
13408;SDS011;6775;49.574;11.170;2023-11-21T05:19:17;2.37;;;2.17;;
13408;SDS011;6775;49.574;11.170;2023-11-21T05:21:45;2.93;;;2.13;;
13408;SDS011;6775;49.574;11.170;2023-11-21T05:24:13;4.10;;;2.17;;
13408;SDS011;6775;49.574;11.170;2023-11-21T05:26:41;2.33;;;1.83;;
13408;SDS011;6775;49.574;11.170;2023-11-21T05:29:11;2.33;;;2.13;;
13408;SDS011;6775;49.574;11.170;2023-11-21T05:31:39;2.17;;;1.97;;
13408;SDS011;6775;49.574;11.170;2023-11-21T05:34:07;2.80;;;2.23;;
13408;SDS011;6775;49.574;11.170;2023-11-21T05:36:35;2.50;;;1.90;;
13408;SDS011;6775;49.574;11.170;2023-11-21T05:39:03;2.67;;;2.43;;
13408;SDS011;6775;49.574;11.170;2023-11-21T05:41:31;2.67;;;2.10;;
13408;SDS011;6775;49.574;11.170;2023-11-21T05:43:59;3.60;;;2.90;;
13408;SDS011;6775;49.574;11.170;2023-11-21T05:46:28;2.97;;;2.27;;
13408;SDS011;6775;49.574;11.170;2023-11-21T05:48:56;3.77;;;2.47;;
13408;SDS011;6775;49.574;11.170;2023-11-21T05:51:24;2.60;;;2.40;;
13408;SDS011;6775;49.574;11.170;2023-11-21T05:53:52;2.97;;;2.63;;
13408;SDS011;6775;49.574;11.170;2023-11-21T05:56:20;2.73;;;2.53;;
13408;SDS011;6775;49.574;11.170;2023-11-21T05:58:48;3.13;;;2.13;;
13408;SDS011;6775;49.574;11.170;2023-11-21T06:01:17;2.87;;;2.27;;
13408;SDS011;6775;49.574;11.170;2023-11-21T06:03:46;3.13;;;2.80;;
13408;SDS011;6775;49.574;11.170;2023-11-21T06:06:15;3.10;;;2.33;;
13408;SDS011;6775;49.574;11.170;2023-11-21T06:08:43;3.20;;;2.90;;
13408;SDS011;6775;49.574;11.170;2023-11-21T06:11:11;3.03;;;2.73;;
13408;SDS011;6775;49.574;11.170;2023-11-21T06:13:40;3.67;;;3.23;;
13408;SDS011;6775;49.574;11.170;2023-11-21T06:16:08;4.53;;;3.60;;
13408;SDS011;6775;49.574;11.170;2023-11-21T06:18:36;5.83;;;3.97;;
13408;SDS011;6775;49.574;11.170;2023-11-21T06:21:06;4.40;;;3.50;;
13408;SDS011;6775;49.574;11.170;2023-11-21T06:23:37;4.77;;;3.50;;
13408;SDS011;6775;49.574;11.170;2023-11-21T06:26:05;4.40;;;3.20;;
13408;SDS011;6775;49.574;11.170;2023-11-21T06:28:35;5.53;;;3.47;;
13408;SDS011;6775;49.574;11.170;2023-11-21T06:31:03;4.80;;;3.03;;
13408;SDS011;6775;49.574;11.170;2023-11-21T06:33:32;3.97;;;2.80;;
13408;SDS011;6775;49.574;11.170;2023-11-21T06:36:00;6.80;;;5.60;;
13408;SDS011;6775;49.574;11.170;2023-11-21T06:38:30;8.50;;;5.53;;
13408;SDS011;6775;49.574;11.170;2023-11-21T06:40:58;5.57;;;4.33;;
13408;SDS011;6775;49.574;11.170;2023-11-21T06:43:28;6.40;;;4.50;;
13408;SDS011;6775;49.574;11.170;2023-11-21T06:45:57;6.27;;;4.43;;
13408;SDS011;6775;49.574;11.170;2023-11-21T06:48:25;5.50;;;4.60;;
13408;SDS011;6775;49.574;11.170;2023-11-21T06:50:53;5.80;;;4.60;;
13408;SDS011;6775;49.574;11.170;2023-11-21T06:53:21;8.67;;;6.90;;
13408;SDS011;6775;49.574;11.170;2023-11-21T06:55:52;14.40;;;8.40;;
13408;SDS011;6775;49.574;11.170;2023-11-21T06:58:20;14.00;;;7.13;;
13408;SDS011;6775;49.574;11.170;2023-11-21T07:00:48;11.23;;;6.60;;
13408;SDS011;6775;49.574;11.170;2023-11-21T07:03:19;12.77;;;7.47;;
13408;SDS011;6775;49.574;11.170;2023-11-21T07:05:47;12.90;;;6.50;;
13408;SDS011;6775;49.574;11.170;2023-11-21T07:08:15;7.77;;;5.00;;
13408;SDS011;6775;49.574;11.170;2023-11-21T07:10:43;7.90;;;5.50;;
13408;SDS011;6775;49.574;11.170;2023-11-21T07:13:13;8.57;;;4.60;;
13408;SDS011;6775;49.574;11.170;2023-11-21T07:15:41;5.90;;;4.70;;
13408;SDS011;6775;49.574;11.170;2023-11-21T07:18:09;5.90;;;4.80;;
13408;SDS011;6775;49.574;11.170;2023-11-21T07:20:37;5.53;;;4.67;;
13408;SDS011;6775;49.574;11.170;2023-11-21T07:23:05;8.70;;;5.97;;
13408;SDS011;6775;49.574;11.170;2023-11-21T07:25:34;6.33;;;5.33;;
13408;SDS011;6775;49.574;11.170;2023-11-21T07:28:02;4.33;;;3.93;;
13408;SDS011;6775;49.574;11.170;2023-11-21T07:30:32;6.23;;;4.50;;
13408;SDS011;6775;49.574;11.170;2023-11-21T07:33:00;5.73;;;4.50;;
13408;SDS011;6775;49.574;11.170;2023-11-21T07:35:29;4.87;;;4.30;;
13408;SDS011;6775;49.574;11.170;2023-11-21T07:37:57;4.67;;;4.00;;
13408;SDS011;6775;49.574;11.170;2023-11-21T07:40:25;5.77;;;4.50;;
13408;SDS011;6775;49.574;11.170;2023-11-21T07:42:54;6.00;;;4.57;;
13408;SDS011;6775;49.574;11.170;2023-11-21T07:45:23;4.87;;;4.37;;
13408;SDS011;6775;49.574;11.170;2023-11-21T07:47:55;7.27;;;4.67;;
13408;SDS011;6775;49.574;11.170;2023-11-21T07:50:23;5.03;;;4.40;;
13408;SDS011;6775;49.574;11.170;2023-11-21T07:52:52;7.20;;;5.37;;
13408;SDS011;6775;49.574;11.170;2023-11-21T07:55:21;5.53;;;4.40;;
13408;SDS011;6775;49.574;11.170;2023-11-21T07:57:49;6.27;;;4.13;;
13408;SDS011;6775;49.574;11.170;2023-11-21T08:00:17;6.10;;;5.03;;
13408;SDS011;6775;49.574;11.170;2023-11-21T08:02:47;6.50;;;5.20;;
13408;SDS011;6775;49.574;11.170;2023-11-21T08:05:16;6.17;;;4.80;;
13408;SDS011;6775;49.574;11.170;2023-11-21T08:07:57;7.77;;;5.27;;
13408;SDS011;6775;49.574;11.170;2023-11-21T08:10:25;5.10;;;4.47;;
13408;SDS011;6775;49.574;11.170;2023-11-21T08:12:53;5.17;;;4.03;;
13408;SDS011;6775;49.574;11.170;2023-11-21T08:15:21;5.00;;;4.13;;
13408;SDS011;6775;49.574;11.170;2023-11-21T08:17:49;6.70;;;4.53;;
13408;SDS011;6775;49.574;11.170;2023-11-21T08:20:19;4.93;;;4.20;;
13408;SDS011;6775;49.574;11.170;2023-11-21T08:22:48;4.67;;;3.93;;
13408;SDS011;6775;49.574;11.170;2023-11-21T08:25:18;4.17;;;3.70;;
13408;SDS011;6775;49.574;11.170;2023-11-21T08:27:46;4.77;;;3.80;;
13408;SDS011;6775;49.574;11.170;2023-11-21T08:30:15;4.33;;;3.13;;
13408;SDS011;6775;49.574;11.170;2023-11-21T08:32:45;3.67;;;3.07;;
13408;SDS011;6775;49.574;11.170;2023-11-21T08:35:13;5.43;;;3.90;;
13408;SDS011;6775;49.574;11.170;2023-11-21T08:37:43;3.80;;;3.30;;
13408;SDS011;6775;49.574;11.170;2023-11-21T08:40:11;2.90;;;2.60;;
13408;SDS011;6775;49.574;11.170;2023-11-21T08:42:42;7.07;;;3.73;;
13408;SDS011;6775;49.574;11.170;2023-11-21T08:45:11;3.90;;;3.27;;
13408;SDS011;6775;49.574;11.170;2023-11-21T08:47:40;3.23;;;2.83;;
13408;SDS011;6775;49.574;11.170;2023-11-21T08:50:10;6.37;;;3.30;;
13408;SDS011;6775;49.574;11.170;2023-11-21T08:52:39;7.70;;;5.77;;
13408;SDS011;6775;49.574;11.170;2023-11-21T08:55:09;9.67;;;7.20;;
13408;SDS011;6775;49.574;11.170;2023-11-21T08:57:38;9.47;;;8.47;;
13408;SDS011;6775;49.574;11.170;2023-11-21T09:00:07;14.97;;;10.73;;
13408;SDS011;6775;49.574;11.170;2023-11-21T09:02:37;17.83;;;13.60;;
13408;SDS011;6775;49.574;11.170;2023-11-21T09:05:08;13.67;;;10.37;;
13408;SDS011;6775;49.574;11.170;2023-11-21T09:07:37;12.13;;;10.20;;
13408;SDS011;6775;49.574;11.170;2023-11-21T09:10:07;11.33;;;8.93;;
13408;SDS011;6775;49.574;11.170;2023-11-21T09:12:37;10.37;;;8.70;;
13408;SDS011;6775;49.574;11.170;2023-11-21T09:15:06;9.60;;;8.13;;
13408;SDS011;6775;49.574;11.170;2023-11-21T09:17:37;7.63;;;6.43;;
13408;SDS011;6775;49.574;11.170;2023-11-21T09:20:07;6.37;;;4.87;;
13408;SDS011;6775;49.574;11.170;2023-11-21T09:22:36;7.30;;;5.37;;
13408;SDS011;6775;49.574;11.170;2023-11-21T09:25:05;10.03;;;7.70;;
13408;SDS011;6775;49.574;11.170;2023-11-21T09:27:36;12.27;;;8.60;;
13408;SDS011;6775;49.574;11.170;2023-11-21T09:30:04;7.30;;;6.13;;
13408;SDS011;6775;49.574;11.170;2023-11-21T09:32:37;14.77;;;8.70;;
13408;SDS011;6775;49.574;11.170;2023-11-21T09:35:06;13.07;;;10.07;;
13408;SDS011;6775;49.574;11.170;2023-11-21T09:37:35;32.03;;;16.27;;
13408;SDS011;6775;49.574;11.170;2023-11-21T09:40:04;37.23;;;20.00;;
13408;SDS011;6775;49.574;11.170;2023-11-21T09:42:43;34.97;;;18.13;;
13408;SDS011;6775;49.574;11.170;2023-11-21T09:45:21;29.60;;;16.20;;
13408;SDS011;6775;49.574;11.170;2023-11-21T09:47:54;24.53;;;13.47;;
13408;SDS011;6775;49.574;11.170;2023-11-21T09:50:24;17.97;;;10.60;;
13408;SDS011;6775;49.574;11.170;2023-11-21T09:52:55;16.30;;;9.13;;
13408;SDS011;6775;49.574;11.170;2023-11-21T09:55:31;7.63;;;5.30;;
13408;SDS011;6775;49.574;11.170;2023-11-21T09:58:04;9.57;;;5.77;;
13408;SDS011;6775;49.574;11.170;2023-11-21T10:00:34;7.50;;;4.83;;
13408;SDS011;6775;49.574;11.170;2023-11-21T10:03:02;5.03;;;3.80;;
13408;SDS011;6775;49.574;11.170;2023-11-21T10:05:31;3.37;;;2.60;;
13408;SDS011;6775;49.574;11.170;2023-11-21T10:08:00;8.00;;;4.40;;
13408;SDS011;6775;49.574;11.170;2023-11-21T10:10:29;30.60;;;13.30;;
13408;SDS011;6775;49.574;11.170;2023-11-21T10:13:01;29.70;;;12.10;;
13408;SDS011;6775;49.574;11.170;2023-11-21T10:15:34;23.80;;;10.17;;
13408;SDS011;6775;49.574;11.170;2023-11-21T10:18:03;13.00;;;5.97;;
13408;SDS011;6775;49.574;11.170;2023-11-21T10:20:34;8.90;;;4.50;;
13408;SDS011;6775;49.574;11.170;2023-11-21T10:23:04;6.73;;;3.90;;
13408;SDS011;6775;49.574;11.170;2023-11-21T10:25:34;4.97;;;2.70;;
13408;SDS011;6775;49.574;11.170;2023-11-21T10:28:04;4.87;;;2.67;;
13408;SDS011;6775;49.574;11.170;2023-11-21T10:30:33;4.83;;;2.30;;
13408;SDS011;6775;49.574;11.170;2023-11-21T10:33:03;3.93;;;2.40;;
13408;SDS011;6775;49.574;11.170;2023-11-21T10:35:45;3.60;;;2.63;;
13408;SDS011;6775;49.574;11.170;2023-11-21T10:38:17;5.10;;;2.80;;
13408;SDS011;6775;49.574;11.170;2023-11-21T10:40:47;12.03;;;6.57;;
13408;SDS011;6775;49.574;11.170;2023-11-21T10:43:17;13.43;;;7.50;;
13408;SDS011;6775;49.574;11.170;2023-11-21T10:45:45;12.60;;;6.70;;
13408;SDS011;6775;49.574;11.170;2023-11-21T10:48:14;7.07;;;4.53;;
13408;SDS011;6775;49.574;11.170;2023-11-21T10:50:43;7.07;;;4.37;;
13408;SDS011;6775;49.574;11.170;2023-11-21T10:53:13;7.07;;;4.23;;
13408;SDS011;6775;49.574;11.170;2023-11-21T10:55:42;6.40;;;5.10;;
13408;SDS011;6775;49.574;11.170;2023-11-21T10:58:12;7.47;;;5.03;;
13408;SDS011;6775;49.574;11.170;2023-11-21T11:00:42;6.20;;;4.50;;
13408;SDS011;6775;49.574;11.170;2023-11-21T11:03:12;4.50;;;3.50;;
13408;SDS011;6775;49.574;11.170;2023-11-21T11:05:43;13.00;;;7.70;;
13408;SDS011;6775;49.574;11.170;2023-11-21T11:08:18;6.53;;;4.97;;
13408;SDS011;6775;49.574;11.170;2023-11-21T11:10:53;5.97;;;5.10;;
13408;SDS011;6775;49.574;11.170;2023-11-21T11:13:23;16.67;;;13.43;;
13408;SDS011;6775;49.574;11.170;2023-11-21T11:15:53;22.27;;;14.23;;
13408;SDS011;6775;49.574;11.170;2023-11-21T11:18:28;16.10;;;10.73;;
13408;SDS011;6775;49.574;11.170;2023-11-21T11:20:58;26.80;;;18.23;;
13408;SDS011;6775;49.574;11.170;2023-11-21T11:23:43;14.20;;;10.33;;
13408;SDS011;6775;49.574;11.170;2023-11-21T11:26:36;13.40;;;9.83;;
13408;SDS011;6775;49.574;11.170;2023-11-21T11:29:17;7.50;;;6.70;;
13408;SDS011;6775;49.574;11.170;2023-11-21T11:32:01;8.77;;;6.30;;
13408;SDS011;6775;49.574;11.170;2023-11-21T11:34:41;7.43;;;5.37;;
13408;SDS011;6775;49.574;11.170;2023-11-21T11:37:16;4.23;;;3.73;;
13408;SDS011;6775;49.574;11.170;2023-11-21T11:39:45;6.27;;;3.10;;
13408;SDS011;6775;49.574;11.170;2023-11-21T11:42:13;3.30;;;2.37;;
13408;SDS011;6775;49.574;11.170;2023-11-21T11:44:51;3.77;;;3.30;;
13408;SDS011;6775;49.574;11.170;2023-11-21T11:47:24;5.47;;;3.70;;
13408;SDS011;6775;49.574;11.170;2023-11-21T11:50:00;4.03;;;2.60;;
13408;SDS011;6775;49.574;11.170;2023-11-21T11:52:34;9.03;;;5.37;;
13408;SDS011;6775;49.574;11.170;2023-11-21T11:55:08;8.10;;;4.10;;
13408;SDS011;6775;49.574;11.170;2023-11-21T11:57:39;5.87;;;4.00;;
13408;SDS011;6775;49.574;11.170;2023-11-21T12:00:16;5.13;;;3.63;;
13408;SDS011;6775;49.574;11.170;2023-11-21T12:02:49;3.63;;;2.63;;
13408;SDS011;6775;49.574;11.170;2023-11-21T12:05:20;4.93;;;3.60;;
13408;SDS011;6775;49.574;11.170;2023-11-21T12:07:50;4.53;;;3.13;;
13408;SDS011;6775;49.574;11.170;2023-11-21T12:10:20;10.40;;;5.83;;
13408;SDS011;6775;49.574;11.170;2023-11-21T12:12:51;13.20;;;6.20;;
13408;SDS011;6775;49.574;11.170;2023-11-21T12:15:21;11.83;;;5.60;;
13408;SDS011;6775;49.574;11.170;2023-11-21T12:17:51;10.23;;;6.20;;
13408;SDS011;6775;49.574;11.170;2023-11-21T12:20:20;11.53;;;6.40;;
13408;SDS011;6775;49.574;11.170;2023-11-21T12:22:51;9.93;;;5.60;;
13408;SDS011;6775;49.574;11.170;2023-11-21T12:25:21;7.17;;;4.73;;
13408;SDS011;6775;49.574;11.170;2023-11-21T12:27:51;15.30;;;7.37;;
13408;SDS011;6775;49.574;11.170;2023-11-21T12:30:21;15.67;;;8.10;;
13408;SDS011;6775;49.574;11.170;2023-11-21T12:32:52;9.33;;;5.70;;
13408;SDS011;6775;49.574;11.170;2023-11-21T12:35:24;14.00;;;6.90;;
13408;SDS011;6775;49.574;11.170;2023-11-21T12:37:54;15.03;;;8.23;;
13408;SDS011;6775;49.574;11.170;2023-11-21T12:40:25;11.00;;;5.83;;
13408;SDS011;6775;49.574;11.170;2023-11-21T12:42:54;6.90;;;4.47;;
13408;SDS011;6775;49.574;11.170;2023-11-21T12:45:25;7.73;;;3.97;;
13408;SDS011;6775;49.574;11.170;2023-11-21T12:47:59;4.07;;;2.77;;
13408;SDS011;6775;49.574;11.170;2023-11-21T12:50:33;5.27;;;2.93;;
13408;SDS011;6775;49.574;11.170;2023-11-21T12:53:04;4.00;;;3.17;;
13408;SDS011;6775;49.574;11.170;2023-11-21T12:55:36;3.80;;;3.40;;
13408;SDS011;6775;49.574;11.170;2023-11-21T12:58:05;3.60;;;3.30;;
13408;SDS011;6775;49.574;11.170;2023-11-21T13:00:38;4.37;;;3.97;;
13408;SDS011;6775;49.574;11.170;2023-11-21T13:03:11;3.30;;;3.10;;
13408;SDS011;6775;49.574;11.170;2023-11-21T13:05:44;3.70;;;3.07;;
13408;SDS011;6775;49.574;11.170;2023-11-21T13:08:17;3.43;;;2.30;;
13408;SDS011;6775;49.574;11.170;2023-11-21T13:10:48;2.13;;;1.70;;
13408;SDS011;6775;49.574;11.170;2023-11-21T13:13:18;1.50;;;1.40;;
13408;SDS011;6775;49.574;11.170;2023-11-21T13:15:50;1.83;;;1.70;;
13408;SDS011;6775;49.574;11.170;2023-11-21T13:18:23;3.07;;;2.60;;
13408;SDS011;6775;49.574;11.170;2023-11-21T13:20:52;2.83;;;2.57;;
13408;SDS011;6775;49.574;11.170;2023-11-21T13:23:23;2.23;;;2.13;;
13408;SDS011;6775;49.574;11.170;2023-11-21T13:25:51;1.83;;;1.73;;
13408;SDS011;6775;49.574;11.170;2023-11-21T13:28:30;2.53;;;1.90;;
13408;SDS011;6775;49.574;11.170;2023-11-21T13:31:00;2.50;;;1.80;;
13408;SDS011;6775;49.574;11.170;2023-11-21T13:33:37;2.17;;;1.27;;
13408;SDS011;6775;49.574;11.170;2023-11-21T13:36:07;1.93;;;1.20;;
13408;SDS011;6775;49.574;11.170;2023-11-21T13:38:37;2.23;;;1.30;;
13408;SDS011;6775;49.574;11.170;2023-11-21T13:41:09;3.57;;;1.60;;
13408;SDS011;6775;49.574;11.170;2023-11-21T13:43:40;1.83;;;1.47;;
13408;SDS011;6775;49.574;11.170;2023-11-21T13:46:10;1.90;;;1.37;;
13408;SDS011;6775;49.574;11.170;2023-11-21T13:48:44;1.50;;;1.03;;
13408;SDS011;6775;49.574;11.170;2023-11-21T13:51:17;1.10;;;1.10;;
13408;SDS011;6775;49.574;11.170;2023-11-21T13:53:47;1.77;;;1.33;;
13408;SDS011;6775;49.574;11.170;2023-11-21T13:56:18;1.50;;;1.40;;
13408;SDS011;6775;49.574;11.170;2023-11-21T13:58:51;1.73;;;1.20;;
13408;SDS011;6775;49.574;11.170;2023-11-21T14:01:21;1.40;;;1.30;;
13408;SDS011;6775;49.574;11.170;2023-11-21T14:04:10;1.70;;;1.37;;
13408;SDS011;6775;49.574;11.170;2023-11-21T14:06:46;2.50;;;1.53;;
13408;SDS011;6775;49.574;11.170;2023-11-21T14:09:16;3.07;;;1.90;;
13408;SDS011;6775;49.574;11.170;2023-11-21T14:11:51;2.80;;;1.57;;
13408;SDS011;6775;49.574;11.170;2023-11-21T14:14:20;2.90;;;2.07;;
13408;SDS011;6775;49.574;11.170;2023-11-21T14:16:51;2.40;;;1.73;;
13408;SDS011;6775;49.574;11.170;2023-11-21T14:19:21;1.70;;;1.57;;
13408;SDS011;6775;49.574;11.170;2023-11-21T14:21:53;2.13;;;1.43;;
13408;SDS011;6775;49.574;11.170;2023-11-21T14:24:21;1.90;;;1.70;;
13408;SDS011;6775;49.574;11.170;2023-11-21T14:26:50;2.77;;;2.03;;
13408;SDS011;6775;49.574;11.170;2023-11-21T14:29:19;2.47;;;1.50;;
13408;SDS011;6775;49.574;11.170;2023-11-21T14:31:49;2.00;;;1.80;;
13408;SDS011;6775;49.574;11.170;2023-11-21T14:34:21;4.60;;;1.90;;
13408;SDS011;6775;49.574;11.170;2023-11-21T14:36:50;1.67;;;1.57;;
13408;SDS011;6775;49.574;11.170;2023-11-21T14:39:18;1.70;;;1.60;;
13408;SDS011;6775;49.574;11.170;2023-11-21T14:41:49;2.03;;;1.50;;
13408;SDS011;6775;49.574;11.170;2023-11-21T14:44:19;3.80;;;2.27;;
13408;SDS011;6775;49.574;11.170;2023-11-21T14:46:51;2.03;;;1.70;;
13408;SDS011;6775;49.574;11.170;2023-11-21T14:49:25;2.37;;;2.07;;
13408;SDS011;6775;49.574;11.170;2023-11-21T14:51:59;2.97;;;2.10;;
13408;SDS011;6775;49.574;11.170;2023-11-21T14:54:27;2.90;;;2.23;;
13408;SDS011;6775;49.574;11.170;2023-11-21T14:57:12;2.33;;;2.00;;
13408;SDS011;6775;49.574;11.170;2023-11-21T14:59:44;2.67;;;2.10;;
13408;SDS011;6775;49.574;11.170;2023-11-21T15:02:17;2.07;;;1.87;;